AirNav   Everest Fuels
 
 1197 users online  

4PS2 SCI Phoenix Heliport
Graterford, Pennsylvania, USA

GOING TO GRATERFORD?


FAA INFORMATION EFFECTIVE 05 DECEMBER 2019

Location

FAA Identifier: 4PS2
Lat/Long: 40-13-56.0200N 075-26-10.8100W
40-13.933667N 075-26.180167W
40.2322278,-75.4363361
(estimated)
Elevation: 283 ft. / 86 m (estimated)
Time zone: UTC -5 (UTC -4 during Daylight Saving Time)
Zip code: 19473

Heliport Operations

Heliport use: Private use. Permission required prior to landing
Activation date: 06/2015
Control tower: no
ARTCC: NEW YORK CENTER
FSS: ALTOONA FLIGHT SERVICE STATION
Attendance: 
Wind indicator: lighted
Segmented circle: no
Lights: SS-SR

Heliport Communications

WX ASOS at PTW (6 nm W): 119.425 (610-495-0823)
WX AWOS-3 at LOM (10 nm SE): 118.925 (215-646-1068)
WX AWOS-3 at CKZ (12 nm NE): 126.325 (215-257-7291)
WX AWOS-3 at UKT (12 nm N): 119.475 (215-538-7610)
WX ASOS at DYL (16 nm NE): 118.875 (215-345-0392)
WX AWOS-3T at OQN (16 nm SW): 121.4 ((610) 692-6190)

Nearby radio navigation aids

VOR radial/distance  VOR name  Freq  Var
PTWr093/5.7POTTSTOWN VORTAC116.5009W
MXEr039/21.7MODENA VORTAC113.2009W
ETXr161/23.8EAST TEXAS VOR/DME110.2009W
ARDr277/24.2YARDLEY VOR/DME108.2010W
FJCr188/29.7ALLENTOWN VORTAC117.5010W
DQOr023/34.2DUPONT VORTAC114.0010W
OODr000/36.3WOODSTOWN VORTAC112.8010W
SBJr246/38.1SOLBERG VOR/DME112.9010W
LRPr089/39.8LANCASTER VOR/DME117.3009W

 
NDB name  Hdg/Dist  Freq  Var  ID
AMBLER325/9.427512WING .. -. --.

Heliport Services

Runway Information

Helipad H1

Dimensions: 100 x 100 ft. / 30 x 30 m
Surface: turf
Runway edge lights: PERI
Traffic pattern: leftleft

Heliport Ownership and Management from official FAA records

Ownership: Privately-owned
Owner: SCI PHOENIX
1200 MOKYCHIC DR.
COLLEGEVILLE, PA 19426
Phone 610-489-4151
Manager: CHRIS STEFFENINO
1200 MOKYCHIC DR.
COLLEGEVILLE, PA 19426
Phone (610) 489-4151

Additional Remarks

A52-H1 HIGH LIGHT MAST.
RECOMMEND APCH/DEP PATHS 190/010 & 100/280.
FOR CD CTC PHILADELPHIA APCH AT 800-354-9884

Instrument Procedures

There are no published instrument procedures at 4PS2.

Some nearby airports with instrument procedures:

N10 - Perkiomen Valley Airport (2 nm S)
KPTW - Heritage Field Airport (6 nm W)
KLOM - Wings Field Airport (10 nm SE)
N47 - Pottstown Municipal Airport (11 nm W)
KCKZ - Pennridge Airport (12 nm NE)
KUKT - Quakertown Airport (12 nm N)
KDYL - Doylestown Airport (16 nm NE)
KOQN - Brandywine Regional Airport (16 nm SW)
 
Loc | Ops | Rwys | IFR | FBO | Links
Com | Nav | Svcs | Stats | Notes
Aerial photo
No photo
 
Airport distance calculator
Flying to SCI Phoenix Heliport? Find the distance to fly.

From to 4PS2

Sunrise and sunset
Times for 13-Dec-2019
 Local
(UTC-5)
 Zulu
(UTC)
Morning civil twilight06:4611:46
Sunrise07:1712:17
Sunset16:3521:35
Evening civil twilight17:0622:06

Current date and time
Zulu (UTC)  13-Dec-2019 14:26:42
Local (UTC-5)  13-Dec-2019 09:26:42
 
METAR
KPTW 
5nm W 
131418Z AUTO 00000KT 8SM BKN018 OVC060 01/M03 A3037 RMK AO2 T00061033
KLOM 
10nm SE 
131415Z AUTO 08006KT 10SM BKN019 OVC030 01/M02 A3036 RMK AO2 T00141015
KCKZ 
12nm NE 
131415Z AUTO 02003KT 10SM FEW018 BKN060 01/M01 A3035 RMK AO2
KUKT 
12nm N 
131420Z AUTO 00000KT 10SM OVC060 02/M01 A3035 RMK A01
KDYL 
16nm NE 
131354Z AUTO VRB03KT 10SM FEW033 01/M03 A3037 RMK AO2 SLP291 T00111033
KOQN 
16nm SW 
131415Z AUTO 09004KT 10SM OVC014 03/00 A3035 RMK AO2
TAF
NOTAMs
Click for the latest NOTAMs
NOTAMs are issued by the DoD/FAA and will open in a separate window not controlled by AirNav.

 

 
 

Would you like to see your business listed on this page?

 If your business provides an interesting product or service to pilots, flight crews, aircraft, or users of the SCI Phoenix Heliport, you should consider listing it here.  To start the listing process, click on the button below
 
Add a business
 

Other Pages about SCI Phoenix Heliport

Update a link
 
Copyright © AirNav, LLC. All rights reserved. Privacy Policy  Contact